Time;durP1;ratioP1;P1;durP2;ratioP2;P2;SDS_P1;SDS_P2;PMS_P1;PMS_P2;Temp;Humidity;BMP_temperature;BMP_pressure;BME280_temperature;BME280_humidity;BME280_pressure;Samples;Min_cycle;Max_cycle;Signal;HPM_P1;HPM_P2
2022/10/23 00:00:19;;;;;;;;;;;15.40;94.10;;;;;;2062673;28;19917;-90
2022/10/23 00:01:19;;;;;;;;;;;15.40;94.20;;;;;;2066620;28;20344;-89
2022/10/23 00:02:20;;;;;;;;;;;15.40;94.10;;;;;;2052155;28;20352;-86
2022/10/23 00:03:20;;;;;;;;;;;15.30;94.10;;;;;;2044412;28;19907;-84
2022/10/23 00:04:24;;;;;;;;;;;15.30;94.10;;;;;;2050602;29;19907;-86
2022/10/23 00:05:24;;;;;;;;;;;15.30;94.10;;;;;;2057428;28;19914;-85
2022/10/23 00:06:26;;;;;;;;;;;15.30;94.10;;;;;;2050662;29;19906;-87
2022/10/23 00:07:26;;;;;;;;;;;15.30;94.10;;;;;;2050581;29;19906;-89
2022/10/23 00:08:27;;;;;;;;;;;15.30;94.10;;;;;;2043638;29;20367;-87
2022/10/23 00:09:27;;;;;;;;;;;15.30;94.10;;;;;;2058611;28;19957;-90
2022/10/23 00:10:28;;;;;;;;;;;15.30;94.20;;;;;;2058513;28;20292;-88
2022/10/23 00:11:29;;;;;;;;;;;15.30;94.10;;;;;;2058589;28;20356;-85
2022/10/23 00:12:30;;;;;;;;;;;15.30;94.10;;;;;;2049980;28;20372;-85
2022/10/23 00:13:30;;;;;;;;;;;15.30;94.10;;;;;;2058677;28;19906;-87
2022/10/23 00:14:31;;;;;;;;;;;15.30;94.10;;;;;;2066830;28;19910;-87
2022/10/23 00:15:33;;;;;;;;;;;15.30;94.20;;;;;;2066716;28;19910;-88
2022/10/23 00:16:34;;;;;;;;;;;15.30;94.10;;;;;;2058685;28;19917;-87
2022/10/23 00:17:34;;;;;;;;;;;15.30;94.10;;;;;;2058578;28;19917;-86
2022/10/23 00:18:35;;;;;;;;;;;15.30;94.10;;;;;;2057412;28;19937;-89
2022/10/23 00:19:36;;;;;;;;;;;15.30;94.10;;;;;;2042653;29;19953;-90
2022/10/23 00:20:36;;;;;;;;;;;15.30;94.10;;;;;;2053486;28;19918;-88
2022/10/23 00:21:38;;;;;;;;;;;15.30;94.20;;;;;;2058515;28;19952;-90
2022/10/23 00:22:38;;;;;;;;;;;15.30;94.10;;;;;;2051027;28;19926;-89
2022/10/23 00:23:39;;;;;;;;;;;15.30;94.30;;;;;;2060078;28;20272;-88
2022/10/23 00:24:40;;;;;;;;;;;15.30;94.30;;;;;;2036346;29;20006;-83
2022/10/23 00:25:41;;;;;;;;;;;15.30;94.30;;;;;;2043497;29;19938;-87
2022/10/23 00:26:41;;;;;;;;;;;15.30;94.20;;;;;;2052232;29;20249;-87
2022/10/23 00:27:42;;;;;;;;;;;15.30;94.20;;;;;;2052220;28;19914;-86
2022/10/23 00:28:44;;;;;;;;;;;15.30;94.20;;;;;;2052246;29;19978;-85
2022/10/23 00:29:45;;;;;;;;;;;15.20;94.10;;;;;;2052334;28;19915;-89
2022/10/23 00:30:45;;;;;;;;;;;15.30;94.10;;;;;;2060116;28;20449;-89
2022/10/23 00:31:46;;;;;;;;;;;15.20;94.20;;;;;;2060299;28;20347;-90
2022/10/23 00:32:47;;;;;;;;;;;15.30;94.20;;;;;;2056487;28;19906;-87
2022/10/23 00:33:47;;;;;;;;;;;15.20;94.20;;;;;;2060129;28;19914;-87
2022/10/23 00:34:48;;;;;;;;;;;15.20;94.10;;;;;;2052384;28;19918;-90
2022/10/23 00:35:49;;;;;;;;;;;15.30;94.20;;;;;;2046301;29;20337;-86
2022/10/23 00:36:49;;;;;;;;;;;15.30;94.20;;;;;;2052331;29;19920;-89
2022/10/23 00:37:50;;;;;;;;;;;15.20;94.20;;;;;;2063493;28;19906;-89
2022/10/23 00:38:51;;;;;;;;;;;15.20;94.10;;;;;;2059559;28;19984;-87
2022/10/23 00:39:51;;;;;;;;;;;15.20;94.10;;;;;;2068037;28;19933;-86
2022/10/23 00:40:52;;;;;;;;;;;15.20;94.10;;;;;;2068098;28;19905;-84
2022/10/23 00:41:53;;;;;;;;;;;15.20;94.20;;;;;;2052029;29;20301;-90
2022/10/23 00:42:53;;;;;;;;;;;15.20;94.10;;;;;;2051962;29;19929;-88
2022/10/23 00:44:05;;;;;;;;;;;15.30;94.20;;;;;;2052150;29;20008;-84
2022/10/23 00:45:17;;;;;;;;;;;15.20;94.10;;;;;;2053557;28;19957;-86
2022/10/23 00:46:18;;;;;;;;;;;15.20;94.20;;;;;;2054822;28;19920;-84
2022/10/23 00:47:18;;;;;;;;;;;15.20;94.30;;;;;;2044222;29;19911;-86
2022/10/23 00:48:19;;;;;;;;;;;15.20;94.30;;;;;;2051960;29;19996;-84
2022/10/23 00:49:21;;;;;;;;;;;15.20;94.20;;;;;;2060259;28;19910;-89
2022/10/23 00:50:24;;;;;;;;;;;15.20;94.20;;;;;;2060078;28;19969;-89
2022/10/23 00:51:26;;;;;;;;;;;15.20;94.20;;;;;;2059939;28;19910;-91
2022/10/23 00:52:27;;;;;;;;;;;15.20;94.10;;;;;;2059378;28;19960;-86
2022/10/23 00:53:28;;;;;;;;;;;15.20;94.20;;;;;;2059841;28;19954;-91
2022/10/23 00:54:34;;;;;;;;;;;15.20;94.20;;;;;;2060105;28;19949;-89
2022/10/23 00:55:37;;;;;;;;;;;15.20;94.30;;;;;;2059210;28;19945;-92
2022/10/23 00:56:39;;;;;;;;;;;15.20;94.20;;;;;;2044244;29;20302;-86
2022/10/23 00:57:40;;;;;;;;;;;15.20;94.20;;;;;;2052233;28;19917;-89
2022/10/23 00:58:41;;;;;;;;;;;15.20;94.20;;;;;;2059289;28;19914;-88
2022/10/23 00:59:41;;;;;;;;;;;15.20;94.20;;;;;;2051966;29;19910;-88
2022/10/23 01:00:46;;;;;;;;;;;15.20;94.20;;;;;;2051977;29;20357;-85
2022/10/23 01:01:47;;;;;;;;;;;15.20;94.20;;;;;;2037192;29;19907;-86
2022/10/23 01:02:48;;;;;;;;;;;15.20;94.10;;;;;;2052170;28;19910;-85
2022/10/23 01:03:50;;;;;;;;;;;15.20;94.20;;;;;;2059969;28;19953;-89
2022/10/23 01:04:50;;;;;;;;;;;15.20;94.10;;;;;;2059991;28;19916;-87
2022/10/23 01:06:14;;;;;;;;;;;15.20;94.10;;;;;;2044762;28;20393;-83
2022/10/23 01:07:41;;;;;;;;;;;15.20;94.10;;;;;;2043713;29;20017;-86
2022/10/23 01:08:41;;;;;;;;;;;15.20;94.10;;;;;;2040285;29;19917;-88
2022/10/23 01:10:03;;;;;;;;;;;15.20;94.10;;;;;;2052046;29;19949;-86
2022/10/23 01:11:38;;;;;;;;;;;15.20;94.20;;;;;;2052275;29;19911;-91
2022/10/23 01:13:01;;;;;;;;;;;15.20;94.10;;;;;;2031387;29;19907;-86
2022/10/23 01:14:07;;;;;;;;;;;15.20;94.20;;;;;;2051511;28;19960;-86
2022/10/23 01:15:20;;;;;;;;;;;15.20;94.10;;;;;;2043958;29;19930;-87
2022/10/23 01:16:33;;;;;;;;;;;15.20;94.10;;;;;;2047378;28;19914;-92
2022/10/23 01:17:46;;;;;;;;;;;15.20;94.10;;;;;;2051743;28;19914;-92
2022/10/23 01:18:57;;;;;;;;;;;15.20;94.10;;;;;;2058982;28;19957;-86
2022/10/23 01:20:13;;;;;;;;;;;15.20;94.20;;;;;;2058822;28;19964;-87
2022/10/23 01:21:21;;;;;;;;;;;15.20;94.10;;;;;;2053470;28;19919;-89
2022/10/23 01:22:21;;;;;;;;;;;15.20;94.10;;;;;;2059586;28;20304;-89
2022/10/23 01:23:34;;;;;;;;;;;15.20;94.10;;;;;;2067837;28;19909;-85
2022/10/23 01:24:36;;;;;;;;;;;15.20;94.10;;;;;;2065698;28;20359;-90
2022/10/23 01:25:55;;;;;;;;;;;15.20;94.00;;;;;;2058839;28;19906;-86
2022/10/23 01:26:58;;;;;;;;;;;15.20;94.20;;;;;;2059758;28;19906;-86
2022/10/23 01:28:01;;;;;;;;;;;15.20;94.20;;;;;;2067255;28;19909;-90
2022/10/23 01:29:05;;;;;;;;;;;15.20;94.10;;;;;;2051810;28;20001;-87
2022/10/23 01:30:10;;;;;;;;;;;15.20;94.10;;;;;;2044301;29;19911;-88
2022/10/23 01:31:17;;;;;;;;;;;15.20;94.10;;;;;;2044813;29;19911;-88
2022/10/23 01:32:25;;;;;;;;;;;15.20;94.10;;;;;;2051683;28;19917;-84
2022/10/23 01:33:30;;;;;;;;;;;15.20;94.10;;;;;;2059815;28;19946;-88
2022/10/23 01:34:34;;;;;;;;;;;15.20;94.10;;;;;;2057349;28;20332;-87
2022/10/23 01:35:38;;;;;;;;;;;15.20;94.10;;;;;;2059617;28;19910;-86
2022/10/23 01:36:42;;;;;;;;;;;15.20;94.10;;;;;;2051804;28;19914;-83
2022/10/23 01:37:44;;;;;;;;;;;15.20;94.20;;;;;;2044274;29;19907;-88
2022/10/23 01:38:52;;;;;;;;;;;15.20;94.50;;;;;;2051956;28;20423;-83
2022/10/23 01:40:00;;;;;;;;;;;15.20;94.20;;;;;;2053163;28;20379;-88
2022/10/23 01:41:10;;;;;;;;;;;15.20;94.10;;;;;;2054472;28;19907;-88
2022/10/23 01:42:14;;;;;;;;;;;15.20;94.20;;;;;;2060032;28;19910;-90
2022/10/23 01:43:17;;;;;;;;;;;15.20;94.20;;;;;;2059559;28;20005;-86
2022/10/23 01:44:26;;;;;;;;;;;15.20;94.20;;;;;;2053564;28;20305;-88
2022/10/23 01:45:49;;;;;;;;;;;15.20;94.10;;;;;;2050995;28;19984;-85
2022/10/23 01:46:53;;;;;;;;;;;15.20;94.20;;;;;;2051917;28;19920;-86
2022/10/23 01:47:55;;;;;;;;;;;15.20;94.20;;;;;;2051987;28;20028;-86
2022/10/23 01:48:56;;;;;;;;;;;15.20;94.20;;;;;;2059611;28;19941;-86
2022/10/23 01:49:58;;;;;;;;;;;15.20;94.20;;;;;;2059497;28;20267;-86
2022/10/23 01:51:02;;;;;;;;;;;15.20;94.20;;;;;;2067414;28;19952;-88
2022/10/23 01:52:05;;;;;;;;;;;15.20;94.20;;;;;;2066835;28;20300;-87
2022/10/23 01:53:06;;;;;;;;;;;15.20;94.20;;;;;;2067290;28;19992;-88
2022/10/23 01:54:09;;;;;;;;;;;15.20;94.20;;;;;;2051522;28;20296;-86
2022/10/23 01:55:11;;;;;;;;;;;15.20;94.20;;;;;;2051301;28;19910;-87
2022/10/23 01:56:18;;;;;;;;;;;15.20;94.30;;;;;;2044015;28;19907;-88
2022/10/23 01:57:20;;;;;;;;;;;15.20;94.30;;;;;;2052332;28;19906;-91
2022/10/23 01:58:21;;;;;;;;;;;15.20;94.30;;;;;;2051727;28;19910;-90
2022/10/23 01:59:25;;;;;;;;;;;15.20;94.30;;;;;;2058809;28;19920;-87
2022/10/23 02:00:26;;;;;;;;;;;15.20;94.40;;;;;;2058939;28;19912;-86
2022/10/23 02:01:28;;;;;;;;;;;15.20;94.30;;;;;;2051738;29;19910;-90
2022/10/23 02:02:31;;;;;;;;;;;15.20;94.30;;;;;;2059353;28;19906;-84
2022/10/23 02:03:34;;;;;;;;;;;15.20;94.20;;;;;;2059418;28;20312;-88
2022/10/23 02:04:37;;;;;;;;;;;15.20;94.20;;;;;;2051554;29;19910;-86
2022/10/23 02:05:38;;;;;;;;;;;15.20;94.20;;;;;;2048472;28;19934;-86
2022/10/23 02:06:39;;;;;;;;;;;15.20;94.30;;;;;;2059479;28;20261;-86
2022/10/23 02:07:39;;;;;;;;;;;15.20;94.20;;;;;;2059410;28;19917;-88
2022/10/23 02:08:40;;;;;;;;;;;15.20;94.30;;;;;;2051407;29;19914;-85
2022/10/23 02:09:41;;;;;;;;;;;15.20;94.20;;;;;;2059482;28;19910;-91
2022/10/23 02:10:42;;;;;;;;;;;15.20;94.20;;;;;;2059338;28;19941;-86
2022/10/23 02:12:01;;;;;;;;;;;15.20;94.20;;;;;;2059483;28;19917;-87
2022/10/23 02:13:08;;;;;;;;;;;15.20;94.20;;;;;;2045942;29;19911;-88
2022/10/23 02:14:26;;;;;;;;;;;15.20;94.20;;;;;;2049723;28;19906;-87
2022/10/23 02:15:33;;;;;;;;;;;15.20;94.50;;;;;;2051367;29;19906;-87
2022/10/23 02:16:38;;;;;;;;;;;15.20;94.20;;;;;;2045259;28;19915;-85
2022/10/23 02:18:06;;;;;;;;;;;15.20;94.20;;;;;;2049768;29;20324;-85
2022/10/23 02:20:55;;;;;;;;;;;15.20;94.30;;;;;;2063148;28;19905;-88
2022/10/23 02:22:02;;;;;;;;;;;15.30;94.30;;;;;;2043425;29;19922;-89
2022/10/23 02:23:19;;;;;;;;;;;15.30;94.40;;;;;;2036408;29;19919;-87
2022/10/23 02:24:30;;;;;;;;;;;15.20;94.20;;;;;;2035666;29;19975;-86
2022/10/23 02:25:34;;;;;;;;;;;15.30;94.20;;;;;;2051412;28;19907;-85
2022/10/23 02:26:46;;;;;;;;;;;15.30;94.30;;;;;;2059192;28;19952;-86
2022/10/23 02:27:52;;;;;;;;;;;15.30;94.30;;;;;;2059306;28;19910;-86
2022/10/23 02:28:58;;;;;;;;;;;15.20;94.20;;;;;;2042888;29;19974;-88
2022/10/23 02:30:06;;;;;;;;;;;15.30;94.30;;;;;;2046126;29;19906;-90
2022/10/23 02:31:10;;;;;;;;;;;15.30;94.30;;;;;;2044555;29;19914;-88
2022/10/23 02:32:11;;;;;;;;;;;15.20;94.20;;;;;;2050545;29;19910;-85
2022/10/23 02:33:15;;;;;;;;;;;15.20;94.20;;;;;;2050576;28;19985;-86
2022/10/23 02:34:16;;;;;;;;;;;15.30;94.20;;;;;;2051004;29;19906;-90
2022/10/23 02:35:18;;;;;;;;;;;15.30;94.20;;;;;;2051237;29;19910;-88
2022/10/23 02:36:19;;;;;;;;;;;15.30;94.30;;;;;;2043603;29;19917;-88
2022/10/23 02:37:19;;;;;;;;;;;15.30;94.30;;;;;;2035358;29;19911;-89
2022/10/23 02:38:46;;;;;;;;;;;15.20;94.30;;;;;;2043289;29;19946;-87
2022/10/23 02:39:48;;;;;;;;;;;15.30;94.30;;;;;;2050304;29;19966;-89
2022/10/23 02:40:49;;;;;;;;;;;15.20;94.40;;;;;;2059271;28;19906;-89
2022/10/23 02:41:54;;;;;;;;;;;15.20;94.30;;;;;;2048653;29;19915;-87
2022/10/23 02:43:04;;;;;;;;;;;15.20;94.40;;;;;;2043687;29;20342;-86
2022/10/23 02:44:05;;;;;;;;;;;15.20;94.40;;;;;;2038638;29;20302;-90
2022/10/23 02:45:06;;;;;;;;;;;15.30;94.40;;;;;;2051042;29;19911;-89
2022/10/23 02:46:11;;;;;;;;;;;15.20;94.40;;;;;;2050078;29;19945;-89
2022/10/23 02:47:12;;;;;;;;;;;15.20;94.40;;;;;;2043006;29;19907;-87
2022/10/23 02:48:17;;;;;;;;;;;15.20;94.30;;;;;;2043161;29;19989;-86
2022/10/23 02:50:51;;;;;;;;;;;15.30;94.30;;;;;;2049363;29;19925;-88
2022/10/23 02:52:18;;;;;;;;;;;15.20;94.50;;;;;;2035067;29;20002;-87
2022/10/23 02:53:18;;;;;;;;;;;15.20;94.40;;;;;;2039048;29;19911;-87
2022/10/23 02:54:24;;;;;;;;;;;15.30;94.40;;;;;;2034950;29;20006;-86
2022/10/23 02:55:43;;;;;;;;;;;15.30;94.60;;;;;;2050912;29;19993;-87
2022/10/23 02:56:55;;;;;;;;;;;15.30;94.60;;;;;;2048553;29;20376;-87
2022/10/23 02:58:07;;;;;;;;;;;15.30;94.50;;;;;;2030836;29;19971;-88
2022/10/23 02:59:07;;;;;;;;;;;15.20;94.40;;;;;;2046801;29;19907;-88
2022/10/23 03:00:12;;;;;;;;;;;15.30;94.50;;;;;;2051177;29;19917;-85
2022/10/23 03:01:16;;;;;;;;;;;15.30;94.60;;;;;;2043105;29;20012;-85
2022/10/23 03:02:22;;;;;;;;;;;15.20;94.50;;;;;;2043432;29;19953;-86
2022/10/23 03:03:28;;;;;;;;;;;15.20;94.60;;;;;;2050289;29;19921;-87
2022/10/23 03:04:30;;;;;;;;;;;15.30;94.50;;;;;;2057305;28;19988;-87
2022/10/23 03:05:34;;;;;;;;;;;15.20;94.50;;;;;;2050222;29;19946;-85
2022/10/23 03:06:34;;;;;;;;;;;15.30;94.60;;;;;;2043441;29;19911;-91
2022/10/23 03:07:37;;;;;;;;;;;15.30;94.60;;;;;;2051018;29;20312;-83
2022/10/23 03:08:41;;;;;;;;;;;15.30;94.50;;;;;;2050496;29;19914;-85
2022/10/23 03:09:42;;;;;;;;;;;15.30;94.40;;;;;;2042982;29;19915;-87
2022/10/23 03:10:43;;;;;;;;;;;15.30;94.50;;;;;;2027346;29;20010;-87
2022/10/23 03:11:44;;;;;;;;;;;15.30;94.40;;;;;;2035112;29;19918;-88
2022/10/23 03:12:46;;;;;;;;;;;15.30;94.40;;;;;;2042113;29;19915;-89
2022/10/23 03:13:47;;;;;;;;;;;15.30;94.40;;;;;;2043144;29;19911;-86
2022/10/23 03:14:48;;;;;;;;;;;15.30;94.40;;;;;;2042443;29;19906;-85
2022/10/23 03:15:48;;;;;;;;;;;15.30;94.40;;;;;;2042811;29;19910;-86
2022/10/23 03:16:49;;;;;;;;;;;15.30;94.30;;;;;;2050857;29;19953;-89
2022/10/23 03:17:49;;;;;;;;;;;15.30;94.30;;;;;;2050827;29;19906;-86
2022/10/23 03:18:50;;;;;;;;;;;15.30;94.40;;;;;;2034315;29;20337;-88
2022/10/23 03:19:51;;;;;;;;;;;15.30;94.40;;;;;;2035318;29;19953;-86
2022/10/23 03:20:52;;;;;;;;;;;15.30;94.40;;;;;;2050646;28;19906;-86
2022/10/23 03:21:56;;;;;;;;;;;15.30;94.50;;;;;;2058547;28;19917;-86
2022/10/23 03:22:56;;;;;;;;;;;15.30;94.50;;;;;;2043027;29;19923;-87
2022/10/23 03:23:57;;;;;;;;;;;15.30;94.50;;;;;;2042982;29;19911;-85
2022/10/23 03:25:10;;;;;;;;;;;15.30;94.50;;;;;;2043724;29;19907;-85
2022/10/23 03:26:10;;;;;;;;;;;15.30;94.50;;;;;;2042879;29;20341;-86
2022/10/23 03:27:15;;;;;;;;;;;15.30;94.60;;;;;;2043471;29;19906;-89
2022/10/23 03:28:16;;;;;;;;;;;15.30;94.60;;;;;;2050775;28;19910;-89
2022/10/23 03:29:17;;;;;;;;;;;15.30;94.50;;;;;;2058756;28;19910;-84
2022/10/23 03:30:19;;;;;;;;;;;15.30;94.50;;;;;;2035278;29;19911;-88
2022/10/23 03:31:24;;;;;;;;;;;15.30;94.60;;;;;;2042843;29;20002;-86
2022/10/23 03:32:29;;;;;;;;;;;15.30;94.70;;;;;;2042800;29;19953;-88
2022/10/23 03:33:30;;;;;;;;;;;15.30;94.70;;;;;;2042407;29;19911;-89
2022/10/23 03:34:39;;;;;;;;;;;15.30;94.60;;;;;;2037075;29;20380;-85
2022/10/23 03:35:42;;;;;;;;;;;15.30;94.60;;;;;;2036849;29;19940;-88
2022/10/23 03:36:43;;;;;;;;;;;15.30;94.60;;;;;;2042610;29;19919;-85
2022/10/23 03:37:44;;;;;;;;;;;15.30;94.70;;;;;;2027428;29;19919;-88
2022/10/23 03:38:45;;;;;;;;;;;15.30;94.60;;;;;;2034544;29;19907;-88
2022/10/23 03:39:46;;;;;;;;;;;15.30;94.70;;;;;;2042737;29;19989;-84
2022/10/23 03:40:47;;;;;;;;;;;15.30;94.70;;;;;;2034885;29;19911;-86
2022/10/23 03:41:47;;;;;;;;;;;15.30;94.70;;;;;;2042781;29;19963;-89
2022/10/23 03:42:50;;;;;;;;;;;15.30;94.80;;;;;;2050614;29;19910;-87
2022/10/23 03:43:52;;;;;;;;;;;15.30;94.80;;;;;;2058552;28;19932;-89
2022/10/23 03:44:53;;;;;;;;;;;15.30;94.70;;;;;;2050494;29;20087;-89
2022/10/23 03:45:56;;;;;;;;;;;15.30;94.70;;;;;;2050041;29;20000;-83
2022/10/23 03:46:59;;;;;;;;;;;15.30;94.60;;;;;;2050628;29;19907;-88
2022/10/23 03:48:00;;;;;;;;;;;15.30;94.70;;;;;;2050826;28;20257;-88
2022/10/23 03:49:03;;;;;;;;;;;15.30;94.80;;;;;;2042851;29;19907;-88
2022/10/23 03:50:04;;;;;;;;;;;15.30;94.80;;;;;;2042947;28;20341;-89
2022/10/23 03:51:06;;;;;;;;;;;15.30;94.70;;;;;;2050541;29;19910;-86
2022/10/23 03:52:07;;;;;;;;;;;15.30;94.70;;;;;;2034436;29;20001;-91
2022/10/23 03:53:08;;;;;;;;;;;15.30;94.60;;;;;;2027002;29;19907;-84
2022/10/23 03:54:09;;;;;;;;;;;15.30;94.60;;;;;;2042840;29;19911;-86
2022/10/23 03:55:11;;;;;;;;;;;15.30;94.60;;;;;;2042878;29;19969;-87
2022/10/23 03:56:12;;;;;;;;;;;15.30;94.60;;;;;;2050440;29;19907;-91
2022/10/23 03:57:13;;;;;;;;;;;15.30;94.50;;;;;;2050026;28;19922;-90
2022/10/23 03:58:14;;;;;;;;;;;15.30;94.60;;;;;;2042444;29;19954;-84
2022/10/23 03:59:15;;;;;;;;;;;15.30;94.50;;;;;;2049993;29;19906;-89
2022/10/23 04:00:16;;;;;;;;;;;15.30;94.50;;;;;;2050506;29;19918;-85
2022/10/23 04:01:17;;;;;;;;;;;15.30;94.50;;;;;;2043059;29;20223;-87
2022/10/23 04:02:19;;;;;;;;;;;15.30;94.70;;;;;;2048556;28;20024;-86
2022/10/23 04:03:19;;;;;;;;;;;15.30;94.70;;;;;;2050468;28;19939;-89
2022/10/23 04:04:20;;;;;;;;;;;15.30;94.70;;;;;;2042665;29;20340;-87
2022/10/23 04:05:21;;;;;;;;;;;15.30;94.80;;;;;;2049958;29;20361;-90
2022/10/23 04:06:28;;;;;;;;;;;15.30;94.70;;;;;;2051511;28;19911;-89
2022/10/23 04:07:31;;;;;;;;;;;15.30;94.70;;;;;;2049890;29;20001;-89
2022/10/23 04:08:34;;;;;;;;;;;15.30;94.70;;;;;;2042909;29;19941;-89
2022/10/23 04:09:36;;;;;;;;;;;15.30;95.00;;;;;;2034940;29;20315;-85
2022/10/23 04:10:37;;;;;;;;;;;15.30;94.70;;;;;;2038824;29;19967;-88
2022/10/23 04:11:38;;;;;;;;;;;15.30;94.70;;;;;;2042911;29;19938;-89
2022/10/23 04:12:38;;;;;;;;;;;15.30;94.70;;;;;;2056696;28;19905;-88
2022/10/23 04:13:39;;;;;;;;;;;15.30;94.70;;;;;;2050363;29;19910;-90
2022/10/23 04:14:40;;;;;;;;;;;15.30;94.70;;;;;;2050574;29;19910;-89
2022/10/23 04:15:46;;;;;;;;;;;15.30;94.70;;;;;;2058500;28;19941;-91
2022/10/23 04:16:47;;;;;;;;;;;15.30;94.70;;;;;;2050680;29;19911;-86
2022/10/23 04:17:47;;;;;;;;;;;15.30;94.70;;;;;;2050320;29;19917;-91
2022/10/23 04:18:48;;;;;;;;;;;15.30;94.90;;;;;;2035414;29;19921;-88
2022/10/23 04:19:49;;;;;;;;;;;15.30;94.90;;;;;;2042731;29;19910;-90
2022/10/23 04:20:49;;;;;;;;;;;15.30;94.80;;;;;;2050363;29;19910;-88
2022/10/23 04:21:50;;;;;;;;;;;15.30;94.80;;;;;;2050773;29;20353;-89
2022/10/23 04:22:51;;;;;;;;;;;15.30;94.80;;;;;;2049276;29;19918;-86
2022/10/23 04:23:51;;;;;;;;;;;15.30;94.80;;;;;;2042682;29;19911;-86
2022/10/23 04:24:52;;;;;;;;;;;15.30;94.80;;;;;;2034919;29;20337;-87
2022/10/23 04:25:55;;;;;;;;;;;15.30;94.90;;;;;;2041735;29;19922;-87
2022/10/23 04:26:57;;;;;;;;;;;15.30;94.90;;;;;;2035343;29;20246;-88
2022/10/23 04:28:01;;;;;;;;;;;15.30;95.10;;;;;;2043108;29;19911;-87
2022/10/23 04:29:06;;;;;;;;;;;15.30;94.80;;;;;;2050771;29;20005;-86
2022/10/23 04:30:07;;;;;;;;;;;15.30;94.90;;;;;;2049212;29;20380;-89
2022/10/23 04:31:08;;;;;;;;;;;15.30;94.90;;;;;;2042603;28;20358;-87
2022/10/23 04:32:08;;;;;;;;;;;15.30;94.80;;;;;;2057901;28;20017;-90
2022/10/23 04:33:09;;;;;;;;;;;15.40;94.80;;;;;;2058503;28;19917;-89
2022/10/23 04:34:10;;;;;;;;;;;15.30;94.90;;;;;;2042654;29;20390;-86
2022/10/23 04:35:10;;;;;;;;;;;15.30;94.90;;;;;;2042493;29;19922;-86
2022/10/23 04:36:11;;;;;;;;;;;15.30;94.90;;;;;;2042595;29;19907;-89
2022/10/23 04:37:13;;;;;;;;;;;15.30;94.90;;;;;;2035160;29;20322;-86
2022/10/23 04:38:14;;;;;;;;;;;15.30;94.80;;;;;;2050280;29;19973;-86
2022/10/23 04:39:15;;;;;;;;;;;15.30;94.90;;;;;;2042004;29;19906;-89
2022/10/23 04:40:15;;;;;;;;;;;15.40;95.00;;;;;;2050471;29;19973;-89
2022/10/23 04:41:16;;;;;;;;;;;15.30;94.90;;;;;;2057768;28;19950;-89
2022/10/23 04:42:17;;;;;;;;;;;15.30;94.90;;;;;;2042563;29;19910;-89
2022/10/23 04:43:17;;;;;;;;;;;15.30;94.90;;;;;;2037553;29;19914;-88
2022/10/23 04:44:18;;;;;;;;;;;15.30;94.90;;;;;;2026920;29;20331;-88
2022/10/23 04:45:19;;;;;;;;;;;15.40;94.90;;;;;;2041845;29;20020;-87
2022/10/23 04:46:19;;;;;;;;;;;15.30;94.90;;;;;;2042550;29;19917;-87
2022/10/23 04:47:23;;;;;;;;;;;15.30;94.90;;;;;;2035439;29;20058;-88
2022/10/23 04:48:31;;;;;;;;;;;15.30;94.90;;;;;;2043583;29;19919;-91
2022/10/23 04:49:51;;;;;;;;;;;15.40;95.00;;;;;;2046214;29;19914;-90
2022/10/23 04:51:10;;;;;;;;;;;15.30;95.10;;;;;;2050832;29;19906;-89
2022/10/23 04:52:37;;;;;;;;;;;15.30;95.10;;;;;;2040991;29;19953;-89
2022/10/23 04:53:58;;;;;;;;;;;15.30;95.10;;;;;;2047372;29;20373;-90
2022/10/23 04:55:31;;;;;;;;;;;15.30;95.00;;;;;;2039980;28;19917;-88
2022/10/23 04:56:45;;;;;;;;;;;15.30;95.10;;;;;;2044261;29;20325;-90
2022/10/23 04:57:50;;;;;;;;;;;15.30;95.10;;;;;;2050058;29;19921;-89
2022/10/23 04:58:55;;;;;;;;;;;15.30;95.00;;;;;;2053897;28;19907;-90
2022/10/23 04:59:57;;;;;;;;;;;15.30;95.10;;;;;;2050338;29;19910;-87
2022/10/23 05:00:58;;;;;;;;;;;15.30;95.40;;;;;;2034806;29;19936;-91
2022/10/23 05:02:00;;;;;;;;;;;15.30;95.30;;;;;;2042916;29;19918;-89
2022/10/23 05:03:02;;;;;;;;;;;15.30;95.20;;;;;;2050943;28;19914;-89
2022/10/23 05:04:09;;;;;;;;;;;15.30;95.10;;;;;;2036803;29;19907;-87
2022/10/23 05:05:29;;;;;;;;;;;15.30;95.20;;;;;;2044899;29;19911;-90
2022/10/23 05:06:40;;;;;;;;;;;15.30;95.20;;;;;;2042548;29;19914;-90
2022/10/23 05:08:05;;;;;;;;;;;15.30;95.20;;;;;;2042884;29;19906;-88
2022/10/23 05:10:02;;;;;;;;;;;15.30;95.10;;;;;;2033095;29;19922;-91
2022/10/23 05:11:11;;;;;;;;;;;15.30;95.10;;;;;;2035939;29;19935;-89
2022/10/23 05:12:17;;;;;;;;;;;15.30;95.40;;;;;;2039793;29;19915;-90
2022/10/23 05:13:18;;;;;;;;;;;15.30;95.40;;;;;;2036364;29;20278;-89
2022/10/23 05:14:19;;;;;;;;;;;15.30;95.30;;;;;;2044237;29;19907;-87
2022/10/23 05:15:20;;;;;;;;;;;15.30;95.20;;;;;;2044163;29;19921;-89
2022/10/23 05:16:30;;;;;;;;;;;15.30;95.30;;;;;;2044181;29;19907;-90
2022/10/23 05:17:38;;;;;;;;;;;15.30;95.40;;;;;;2053151;28;19906;-89
2022/10/23 05:18:44;;;;;;;;;;;15.30;95.50;;;;;;2058513;28;19909;-86
2022/10/23 05:19:48;;;;;;;;;;;15.30;95.70;;;;;;2043932;29;19911;-88
2022/10/23 05:20:50;;;;;;;;;;;15.20;95.70;;;;;;2036702;29;20006;-90
2022/10/23 05:21:54;;;;;;;;;;;15.20;95.70;;;;;;2044113;29;20338;-91
2022/10/23 05:22:59;;;;;;;;;;;15.20;95.60;;;;;;2044549;29;19974;-89
2022/10/23 05:24:00;;;;;;;;;;;15.20;95.60;;;;;;2043224;29;20401;-89
2022/10/23 05:25:01;;;;;;;;;;;15.20;95.90;;;;;;2035743;29;20006;-89
2022/10/23 05:26:04;;;;;;;;;;;15.20;95.60;;;;;;2041013;28;19923;-89
2022/10/23 05:27:06;;;;;;;;;;;15.20;95.70;;;;;;2051759;29;19906;-90
2022/10/23 05:28:06;;;;;;;;;;;15.20;95.40;;;;;;2058727;28;19909;-89
2022/10/23 05:29:07;;;;;;;;;;;15.20;95.60;;;;;;2059674;28;19949;-91
2022/10/23 05:30:08;;;;;;;;;;;15.20;95.70;;;;;;2035943;29;19907;-86
2022/10/23 05:31:11;;;;;;;;;;;15.20;95.50;;;;;;2043515;29;19934;-88
2022/10/23 05:32:14;;;;;;;;;;;15.20;95.50;;;;;;2043024;29;20298;-88
2022/10/23 05:33:16;;;;;;;;;;;15.30;95.50;;;;;;2043896;29;20341;-92
2022/10/23 05:34:18;;;;;;;;;;;15.20;95.40;;;;;;2043945;29;19991;-88
2022/10/23 05:35:21;;;;;;;;;;;15.20;95.40;;;;;;2044598;28;19937;-88
2022/10/23 05:36:22;;;;;;;;;;;15.20;95.50;;;;;;2059451;28;19910;-88
2022/10/23 05:37:30;;;;;;;;;;;15.30;95.50;;;;;;2050764;29;19906;-87
2022/10/23 05:38:41;;;;;;;;;;;15.30;95.30;;;;;;2036982;29;20361;-88
2022/10/23 05:39:49;;;;;;;;;;;15.30;95.50;;;;;;2038244;29;19970;-87
2022/10/23 05:40:51;;;;;;;;;;;15.30;95.40;;;;;;2037060;29;19907;-86
2022/10/23 05:41:53;;;;;;;;;;;15.30;95.40;;;;;;2051666;28;19921;-89
2022/10/23 05:42:57;;;;;;;;;;;15.30;95.30;;;;;;2059058;28;20396;-89
2022/10/23 05:44:16;;;;;;;;;;;15.30;95.30;;;;;;2052138;29;19910;-86
2022/10/23 05:45:43;;;;;;;;;;;15.30;95.30;;;;;;2027153;29;19963;-87
2022/10/23 05:47:13;;;;;;;;;;;15.30;95.40;;;;;;2054413;28;19973;-89
2022/10/23 05:48:36;;;;;;;;;;;15.30;95.30;;;;;;2032177;29;19936;-89
2022/10/23 05:49:37;;;;;;;;;;;15.30;95.40;;;;;;2049134;29;19942;-86
2022/10/23 05:51:06;;;;;;;;;;;15.30;95.50;;;;;;2040905;29;19963;-87
2022/10/23 05:52:27;;;;;;;;;;;15.30;95.50;;;;;;2049131;29;19910;-89
2022/10/23 05:53:40;;;;;;;;;;;15.30;95.50;;;;;;2048143;29;19920;-85
2022/10/23 05:54:51;;;;;;;;;;;15.30;95.40;;;;;;2051566;28;19911;-85
2022/10/23 05:56:10;;;;;;;;;;;15.30;95.50;;;;;;2055689;28;20001;-86
2022/10/23 05:57:33;;;;;;;;;;;15.30;95.50;;;;;;2046428;29;19947;-88
2022/10/23 05:58:38;;;;;;;;;;;15.30;95.40;;;;;;2042924;29;19910;-90
2022/10/23 05:59:47;;;;;;;;;;;15.30;95.30;;;;;;2038189;29;19911;-88
2022/10/23 06:01:03;;;;;;;;;;;15.30;95.60;;;;;;2046431;29;19911;-87
2022/10/23 06:02:21;;;;;;;;;;;15.20;95.50;;;;;;2055475;28;19906;-88
2022/10/23 06:03:27;;;;;;;;;;;15.30;95.50;;;;;;2049007;29;19914;-90
2022/10/23 06:04:27;;;;;;;;;;;15.30;95.40;;;;;;2051549;29;19958;-86
2022/10/23 06:05:59;;;;;;;;;;;15.30;95.60;;;;;;2047129;29;19962;-87
2022/10/23 06:07:12;;;;;;;;;;;15.30;95.70;;;;;;2037338;29;19911;-87
2022/10/23 06:08:13;;;;;;;;;;;15.30;95.60;;;;;;2037816;29;19915;-89
2022/10/23 06:09:14;;;;;;;;;;;15.30;95.60;;;;;;2050113;29;19953;-90
2022/10/23 06:10:16;;;;;;;;;;;15.30;95.70;;;;;;2043865;29;19913;-90
2022/10/23 06:11:19;;;;;;;;;;;15.30;95.80;;;;;;2044098;29;19941;-90
2022/10/23 06:12:30;;;;;;;;;;;15.30;95.90;;;;;;2042882;29;19907;-89
2022/10/23 06:13:32;;;;;;;;;;;15.30;95.90;;;;;;2043920;29;19906;-85
2022/10/23 06:14:33;;;;;;;;;;;15.30;96.00;;;;;;2043834;29;19946;-89
2022/10/23 06:15:34;;;;;;;;;;;15.30;95.90;;;;;;2035611;29;20043;-91
2022/10/23 06:16:39;;;;;;;;;;;15.30;95.90;;;;;;2037204;29;20219;-89
2022/10/23 06:17:40;;;;;;;;;;;15.30;96.00;;;;;;2035638;29;20035;-90
2022/10/23 06:18:42;;;;;;;;;;;15.20;95.90;;;;;;2035109;29;19907;-89
2022/10/23 06:19:47;;;;;;;;;;;15.20;96.00;;;;;;2051745;29;19965;-89
2022/10/23 06:20:50;;;;;;;;;;;15.30;96.00;;;;;;2043174;29;19922;-89